createdAt,value
2018-08-17T00:00:59.073Z,80.60
2018-08-17T00:03:27.658Z,81.60
2018-08-17T00:05:56.264Z,81.50
2018-08-17T00:08:24.849Z,81.70
2018-08-17T00:10:53.444Z,79.00
2018-08-17T00:13:22.041Z,79.60
2018-08-17T00:15:50.657Z,76.80
2018-08-17T00:18:19.225Z,78.80
2018-08-17T00:20:47.813Z,81.60
2018-08-17T00:23:16.385Z,81.40
2018-08-17T00:25:45.003Z,81.30
2018-08-17T00:28:13.593Z,81.50
2018-08-17T00:30:42.221Z,82.90
2018-08-17T00:33:10.810Z,80.20
2018-08-17T00:35:39.646Z,81.10
2018-08-17T00:38:08.259Z,81.30
2018-08-17T00:40:36.877Z,81.90
2018-08-17T00:43:05.464Z,81.80
2018-08-17T00:45:34.090Z,81.90
2018-08-17T00:48:02.769Z,82.50
2018-08-17T00:50:31.371Z,83.00
2018-08-17T00:52:59.985Z,83.10
2018-08-17T00:55:28.635Z,81.40
2018-08-17T00:57:57.225Z,81.90
2018-08-17T01:00:25.853Z,80.70
2018-08-17T01:02:54.453Z,79.40
2018-08-17T01:05:23.123Z,80.00
2018-08-17T01:07:51.714Z,80.70
2018-08-17T01:10:20.319Z,82.70
2018-08-17T01:12:48.930Z,82.10
2018-08-17T01:15:17.533Z,82.60
2018-08-17T01:17:46.836Z,78.70
2018-08-17T01:20:15.426Z,80.30
2018-08-17T01:22:44.025Z,79.70
2018-08-17T01:25:12.609Z,78.80
2018-08-17T01:27:41.217Z,80.70
2018-08-17T01:30:10.224Z,80.10
2018-08-17T01:32:39.013Z,83.00
2018-08-17T01:35:07.909Z,82.10
2018-08-17T01:37:36.524Z,82.80
2018-08-17T01:40:05.485Z,83.40
2018-08-17T01:42:34.102Z,83.90
2018-08-17T01:45:02.708Z,83.00
2018-08-17T01:47:31.304Z,83.30
2018-08-17T01:49:59.869Z,83.50
2018-08-17T01:52:28.486Z,83.40
2018-08-17T01:54:57.053Z,84.60
2018-08-17T01:57:25.724Z,83.50
2018-08-17T01:59:54.309Z,83.80
2018-08-17T02:02:22.930Z,84.50
2018-08-17T02:04:51.557Z,84.10
2018-08-17T02:07:20.233Z,85.90
2018-08-17T02:09:48.864Z,83.20
2018-08-17T02:12:17.473Z,84.00
2018-08-17T02:14:46.076Z,84.50
2018-08-17T02:17:14.693Z,84.60
2018-08-17T02:19:43.354Z,86.20
2018-08-17T02:22:12.257Z,84.90
2018-08-17T02:24:40.828Z,84.70
2018-08-17T02:27:09.444Z,82.70
2018-08-17T02:29:38.009Z,83.90
2018-08-17T02:32:06.699Z,84.90
2018-08-17T02:34:35.283Z,85.30
2018-08-17T02:37:03.916Z,85.40
2018-08-17T02:39:32.485Z,85.10
2018-08-17T02:42:01.150Z,84.90
2018-08-17T02:44:29.718Z,85.50
2018-08-17T02:46:58.292Z,85.20
2018-08-17T02:49:26.885Z,85.70
2018-08-17T02:51:55.452Z,85.40
2018-08-17T02:54:24.053Z,84.60
2018-08-17T02:56:52.645Z,85.40
2018-08-17T02:59:21.273Z,86.70
2018-08-17T03:01:49.866Z,84.10
2018-08-17T03:04:18.518Z,84.60
2018-08-17T03:06:47.117Z,86.90
2018-08-17T03:09:16.169Z,84.40
2018-08-17T03:11:44.770Z,85.20
2018-08-17T03:14:13.373Z,87.40
2018-08-17T03:16:42.536Z,88.20
2018-08-17T03:19:11.333Z,86.80
2018-08-17T03:21:39.949Z,86.60
2018-08-17T03:24:08.577Z,85.60
2018-08-17T03:26:37.197Z,85.50
2018-08-17T03:29:05.810Z,85.90
2018-08-17T03:31:34.423Z,87.60
2018-08-17T03:34:03.009Z,86.90
2018-08-17T03:36:31.572Z,88.10
2018-08-17T03:39:00.310Z,86.30
2018-08-17T03:41:28.890Z,86.10
2018-08-17T03:43:57.489Z,86.50
2018-08-17T03:46:27.002Z,86.70
2018-08-17T03:48:55.587Z,86.80
2018-08-17T03:51:24.145Z,84.90
2018-08-17T03:53:52.733Z,86.10
2018-08-17T03:56:21.356Z,86.30
2018-08-17T03:58:49.953Z,86.10
2018-08-17T04:01:18.545Z,86.40
2018-08-17T04:03:47.138Z,87.80
2018-08-17T04:06:15.733Z,88.70
2018-08-17T04:08:44.325Z,87.30
2018-08-17T04:11:12.885Z,85.70
2018-08-17T04:13:41.514Z,86.50
2018-08-17T04:16:10.086Z,87.40
2018-08-17T04:18:38.709Z,87.40
2018-08-17T04:21:07.285Z,87.60
2018-08-17T04:23:35.853Z,88.30
2018-08-17T04:26:04.465Z,88.60
2018-08-17T04:28:33.040Z,89.50
2018-08-17T04:31:01.662Z,89.90
2018-08-17T04:33:30.241Z,86.90
2018-08-17T04:35:58.841Z,88.20
2018-08-17T04:38:27.443Z,89.30
2018-08-17T04:40:56.041Z,89.90
2018-08-17T04:43:24.815Z,88.60
2018-08-17T04:45:53.437Z,86.80
2018-08-17T04:48:22.026Z,87.30
2018-08-17T04:50:52.821Z,89.20
2018-08-17T04:53:27.466Z,88.20
2018-08-17T04:55:56.613Z,89.10
2018-08-17T04:58:37.570Z,88.50
2018-08-17T05:01:08.501Z,89.80
2018-08-17T05:03:39.574Z,88.60
2018-08-17T05:06:08.471Z,87.80
2018-08-17T05:08:38.487Z,88.90
2018-08-17T05:11:08.814Z,88.60
2018-08-17T05:13:41.710Z,88.00
2018-08-17T05:16:10.678Z,88.20
2018-08-17T05:18:39.515Z,87.50
2018-08-17T05:21:08.144Z,90.10
2018-08-17T05:23:36.963Z,87.60
2018-08-17T05:26:05.684Z,89.20
2018-08-17T05:28:34.300Z,89.40
2018-08-17T05:31:02.955Z,89.20
2018-08-17T05:33:31.696Z,90.30
2018-08-17T05:36:00.501Z,90.50
2018-08-17T05:38:29.089Z,88.40
2018-08-17T05:40:57.727Z,89.50
2018-08-17T05:43:26.532Z,90.80
2018-08-17T05:45:55.129Z,90.30
2018-08-17T05:48:23.690Z,88.60
2018-08-17T05:50:52.316Z,87.90
2018-08-17T05:53:20.884Z,86.20
2018-08-17T05:55:49.811Z,85.90
2018-08-17T06:01:09.177Z,80.30
2018-08-17T06:03:44.568Z,78.10
2018-08-17T06:06:29.788Z,77.90
2018-08-17T06:09:11.974Z,77.30
2018-08-17T06:11:44.273Z,76.50
2018-08-17T06:14:20.754Z,74.80
2018-08-17T06:16:57.569Z,73.70
2018-08-17T06:19:37.089Z,71.70
2018-08-17T06:22:21.549Z,70.30
2018-08-17T06:25:03.643Z,69.70
2018-08-17T06:27:49.263Z,69.10
2018-08-17T06:30:24.160Z,67.50
2018-08-17T06:33:04.209Z,66.00
2018-08-17T06:35:41.150Z,66.30
2018-08-17T06:38:17.924Z,62.80
2018-08-17T06:41:02.970Z,61.50
2018-08-17T06:43:32.314Z,60.00
2018-08-17T06:46:01.470Z,58.50
2018-08-17T06:48:30.085Z,57.70
2018-08-17T06:51:16.221Z,60.20
2018-08-17T06:53:52.085Z,56.20
2018-08-17T06:56:32.579Z,55.10
2018-08-17T06:59:17.140Z,53.30
2018-08-17T07:01:52.297Z,53.80
2018-08-17T07:04:34.422Z,51.30
2018-08-17T07:07:21.834Z,50.20
2018-08-17T07:12:39.640Z,48.40
2018-08-17T07:15:09.322Z,46.90
2018-08-17T07:17:38.390Z,46.80
2018-08-17T07:20:08.931Z,45.50
2018-08-17T07:22:39.013Z,45.40
2018-08-17T07:25:08.496Z,45.40
2018-08-17T07:27:37.864Z,46.30
2018-08-17T07:30:07.731Z,43.40
2018-08-17T07:32:36.956Z,41.60
2018-08-17T07:35:06.996Z,41.20
2018-08-17T07:37:35.624Z,40.50
2018-08-17T07:40:25.419Z,40.80
2018-08-17T07:43:06.795Z,38.20
2018-08-17T07:45:36.613Z,37.60
2018-08-17T07:48:06.320Z,36.10
2018-08-17T07:50:34.924Z,39.30
2018-08-17T07:53:03.526Z,36.60
2018-08-17T07:55:32.150Z,37.40
2018-08-17T07:58:01.083Z,39.00
2018-08-17T08:00:30.037Z,35.60
2018-08-17T08:03:21.739Z,34.30
2018-08-17T08:06:01.860Z,35.20
2018-08-17T08:08:48.342Z,34.10
2018-08-17T08:11:22.497Z,37.10
2018-08-17T08:14:03.002Z,34.90
2018-08-17T08:16:47.277Z,33.80
2018-08-17T08:19:28.597Z,33.70
2018-08-17T08:24:43.548Z,31.30
2018-08-17T08:27:20.180Z,33.20
2018-08-17T08:29:56.785Z,31.10
2018-08-17T08:32:37.507Z,32.20
2018-08-17T08:35:26.127Z,30.00
2018-08-17T08:38:00.021Z,29.70
2018-08-17T08:43:21.321Z,33.00
2018-08-17T08:45:58.732Z,29.40
2018-08-17T08:51:31.918Z,30.00
2018-08-17T08:54:13.347Z,29.60
2018-08-17T08:56:54.633Z,28.60
2018-08-17T08:59:34.373Z,28.80
2018-08-17T09:02:08.722Z,28.90
2018-08-17T09:07:39.392Z,31.30
2018-08-17T09:10:21.455Z,29.10
2018-08-17T09:13:03.872Z,28.50
2018-08-17T09:15:33.892Z,29.00
2018-08-17T09:18:04.774Z,29.60
2018-08-17T09:20:35.239Z,28.00
2018-08-17T09:23:05.232Z,28.50
2018-08-17T09:25:33.888Z,26.80
2018-08-17T09:28:02.478Z,30.20
2018-08-17T09:30:31.109Z,27.10
2018-08-17T09:32:59.897Z,27.70
2018-08-17T09:35:28.837Z,27.30
2018-08-17T09:37:57.583Z,27.40
2018-08-17T09:40:26.337Z,27.00
2018-08-17T09:42:55.225Z,26.30
2018-08-17T09:45:24.036Z,27.10
2018-08-17T09:47:52.817Z,25.70
2018-08-17T09:50:21.686Z,26.00
2018-08-17T09:52:50.510Z,27.70
2018-08-17T09:55:19.459Z,28.10
2018-08-17T09:57:48.370Z,27.40
2018-08-17T10:00:17.558Z,26.30
2018-08-17T10:02:51.567Z,26.30
2018-08-17T10:05:25.751Z,27.10
2018-08-17T10:08:00.362Z,28.10
2018-08-17T10:10:29.178Z,26.90
2018-08-17T10:13:08.519Z,25.70
2018-08-17T10:15:42.755Z,28.80
2018-08-17T10:18:23.816Z,27.80
2018-08-17T10:21:11.196Z,25.90
2018-08-17T10:23:50.401Z,25.70
2018-08-17T10:26:29.228Z,26.60
2018-08-17T10:29:11.050Z,26.30
2018-08-17T10:34:40.028Z,26.30
2018-08-17T10:37:18.723Z,26.30
2018-08-17T10:39:54.958Z,26.60
2018-08-17T10:42:38.272Z,26.00
2018-08-17T10:45:10.562Z,26.80
2018-08-17T10:47:54.959Z,27.60
2018-08-17T10:50:42.007Z,26.90
2018-08-17T10:56:02.108Z,26.60
2018-08-17T10:58:41.390Z,28.50
2018-08-17T11:01:15.033Z,28.70
2018-08-17T11:03:49.871Z,27.90
2018-08-17T11:06:30.366Z,29.80
2018-08-17T11:09:08.357Z,29.60
2018-08-17T11:14:30.452Z,30.40
2018-08-17T11:16:59.222Z,31.60
2018-08-17T11:19:27.853Z,30.80
2018-08-17T11:21:56.456Z,30.90
2018-08-17T11:24:25.029Z,30.90
2018-08-17T11:26:53.622Z,33.00
2018-08-17T11:29:22.223Z,32.50
2018-08-17T11:31:52.663Z,32.50
2018-08-17T11:34:21.301Z,32.60
2018-08-17T11:36:49.897Z,33.00
2018-08-17T11:39:18.470Z,32.80
2018-08-17T11:41:47.069Z,33.60
2018-08-17T11:44:16.106Z,34.00
2018-08-17T11:46:44.942Z,33.20
2018-08-17T11:49:13.529Z,32.10
2018-08-17T11:51:42.217Z,33.80
2018-08-17T11:54:12.176Z,34.40
2018-08-17T11:56:41.298Z,33.40
2018-08-17T11:59:09.881Z,34.50
2018-08-17T12:01:39.162Z,34.20
2018-08-17T12:04:08.286Z,35.30
2018-08-17T12:06:37.191Z,35.00
2018-08-17T12:09:07.242Z,35.80
2018-08-17T12:11:38.202Z,35.50
2018-08-17T12:14:06.914Z,36.40
2018-08-17T12:16:35.623Z,36.20
2018-08-17T12:19:04.234Z,36.10
2018-08-17T12:21:32.869Z,36.90
2018-08-17T12:24:01.485Z,36.10
2018-08-17T12:26:32.613Z,36.30
2018-08-17T12:29:01.183Z,36.70
2018-08-17T12:31:29.818Z,36.90
2018-08-17T12:33:58.393Z,36.00
2018-08-17T12:36:26.974Z,36.90
2018-08-17T12:38:55.577Z,37.00
2018-08-17T12:41:24.153Z,36.40
2018-08-17T12:43:52.740Z,36.50
2018-08-17T12:46:21.305Z,36.90
2018-08-17T12:48:49.918Z,36.30
2018-08-17T12:51:18.530Z,36.60
2018-08-17T12:53:47.125Z,37.30
2018-08-17T12:56:15.700Z,37.00
2018-08-17T12:58:44.319Z,37.30
2018-08-17T13:01:13.112Z,37.20
2018-08-17T13:03:41.719Z,36.80
2018-08-17T13:06:10.318Z,37.00
2018-08-17T13:08:39.954Z,37.60
2018-08-17T13:11:08.553Z,37.60
2018-08-17T13:13:37.742Z,37.90
2018-08-17T13:16:07.593Z,37.40
2018-08-17T13:18:37.828Z,37.80
2018-08-17T13:21:06.724Z,38.10
2018-08-17T13:23:35.332Z,38.00
2018-08-17T13:26:03.973Z,37.40
2018-08-17T13:28:32.566Z,37.40
2018-08-17T13:31:01.169Z,38.10
2018-08-17T13:33:29.900Z,38.50
2018-08-17T13:35:58.876Z,38.00
2018-08-17T13:38:27.505Z,37.80
2018-08-17T13:40:56.098Z,37.80
2018-08-17T13:43:24.705Z,37.40
2018-08-17T13:45:53.286Z,38.00
2018-08-17T13:48:21.901Z,37.90
2018-08-17T13:50:50.474Z,37.50
2018-08-17T13:53:19.069Z,36.90
2018-08-17T13:55:47.641Z,37.20
2018-08-17T13:58:16.330Z,36.50
2018-08-17T14:00:45.146Z,36.70
2018-08-17T14:03:13.766Z,36.80
2018-08-17T14:05:42.378Z,36.20
2018-08-17T14:08:10.975Z,36.90
2018-08-17T14:10:39.590Z,37.20
2018-08-17T14:13:08.178Z,35.50
2018-08-17T14:15:38.024Z,36.10
2018-08-17T14:18:07.731Z,37.50
2018-08-17T14:20:37.354Z,37.80
2018-08-17T14:23:07.117Z,37.50
2018-08-17T14:25:39.654Z,37.60
2018-08-17T14:28:13.461Z,37.70
2018-08-17T14:30:44.111Z,37.20
2018-08-17T14:33:13.541Z,38.00
2018-08-17T14:35:43.068Z,38.00
2018-08-17T14:38:11.657Z,37.20
2018-08-17T14:40:40.258Z,37.10
2018-08-17T14:43:08.880Z,37.40
2018-08-17T14:45:37.482Z,38.30
2018-08-17T14:48:06.585Z,37.50
2018-08-17T14:50:35.238Z,38.70
2018-08-17T14:53:03.862Z,37.90
2018-08-17T14:55:32.494Z,37.90
2018-08-17T14:58:01.086Z,37.10
2018-08-17T15:00:29.725Z,38.10
2018-08-17T15:02:58.320Z,37.70
2018-08-17T15:05:26.957Z,37.70
2018-08-17T15:07:55.524Z,37.80
2018-08-17T15:10:24.149Z,37.40
2018-08-17T15:12:52.743Z,37.90
2018-08-17T15:15:21.345Z,38.30
2018-08-17T15:17:49.936Z,38.50
2018-08-17T15:20:18.588Z,38.60
2018-08-17T15:22:47.272Z,38.10
2018-08-17T15:25:15.909Z,39.00
2018-08-17T15:27:44.547Z,39.10
2018-08-17T15:30:13.220Z,39.40
2018-08-17T15:32:42.461Z,38.90
2018-08-17T15:35:11.724Z,39.80
2018-08-17T15:37:40.799Z,38.70
2018-08-17T15:40:11.333Z,39.40
2018-08-17T15:42:40.409Z,39.70
2018-08-17T15:45:09.666Z,39.60
2018-08-17T15:47:38.309Z,39.50
2018-08-17T15:50:11.151Z,39.60
2018-08-17T15:52:39.806Z,39.80
2018-08-17T15:55:08.512Z,39.70
2018-08-17T15:57:37.183Z,39.50
2018-08-17T16:00:07.863Z,40.00
2018-08-17T16:02:36.497Z,42.10
2018-08-17T16:05:05.923Z,44.10
2018-08-17T16:07:34.546Z,43.90
2018-08-17T16:10:03.298Z,43.80
2018-08-17T16:12:31.888Z,43.60
2018-08-17T16:15:00.476Z,43.40
2018-08-17T16:17:29.085Z,44.30
2018-08-17T16:19:57.673Z,44.40
2018-08-17T16:22:26.277Z,44.60
2018-08-17T16:24:54.857Z,46.10
2018-08-17T16:27:23.479Z,45.80
2018-08-17T16:29:52.083Z,47.10
2018-08-17T16:32:20.714Z,47.10
2018-08-17T16:34:49.285Z,47.30
2018-08-17T16:37:17.950Z,47.50
2018-08-17T16:39:52.092Z,48.00
2018-08-17T16:42:26.113Z,48.60
2018-08-17T16:44:54.969Z,48.70
2018-08-17T16:47:23.585Z,50.10
2018-08-17T16:49:52.260Z,49.30
2018-08-17T16:52:20.953Z,49.90
2018-08-17T16:54:49.538Z,50.90
2018-08-17T16:57:18.169Z,51.00
2018-08-17T16:59:46.791Z,50.80
2018-08-17T17:02:15.537Z,52.10
2018-08-17T17:04:44.430Z,51.80
2018-08-17T17:07:13.060Z,51.00
2018-08-17T17:09:41.654Z,51.30
2018-08-17T17:12:17.477Z,52.30
2018-08-17T17:14:46.330Z,52.10
2018-08-17T17:17:15.356Z,52.10
2018-08-17T17:19:43.933Z,52.50
2018-08-17T17:22:12.560Z,53.40
2018-08-17T17:24:41.377Z,53.20
2018-08-17T17:27:10.069Z,53.80
2018-08-17T17:29:38.776Z,52.10
2018-08-17T17:32:07.549Z,52.70
2018-08-17T17:34:36.160Z,54.40
2018-08-17T17:37:04.913Z,54.00
2018-08-17T17:39:33.497Z,54.00
2018-08-17T17:42:02.098Z,54.40
2018-08-17T17:44:32.083Z,54.70
2018-08-17T17:47:00.791Z,55.30
2018-08-17T17:49:29.509Z,56.90
2018-08-17T17:51:58.191Z,55.50
2018-08-17T17:54:26.822Z,56.30
2018-08-17T17:57:07.611Z,53.50
2018-08-17T17:59:42.965Z,55.50
2018-08-17T18:02:11.568Z,55.50
2018-08-17T18:04:40.200Z,55.50
2018-08-17T18:07:08.812Z,54.40
2018-08-17T18:09:37.403Z,54.90
2018-08-17T18:12:06.057Z,55.30
2018-08-17T18:14:35.468Z,54.70
2018-08-17T18:17:04.149Z,54.80
2018-08-17T18:19:32.774Z,54.50
2018-08-17T18:22:01.991Z,54.40
2018-08-17T18:24:31.499Z,54.30
2018-08-17T18:27:00.950Z,54.50
2018-08-17T18:29:30.813Z,54.30
2018-08-17T18:31:59.473Z,54.70
2018-08-17T18:34:28.080Z,54.80
2018-08-17T18:36:56.678Z,54.60
2018-08-17T18:39:25.485Z,54.50
2018-08-17T18:41:54.065Z,55.70
2018-08-17T18:44:22.682Z,55.40
2018-08-17T18:46:52.031Z,54.80
2018-08-17T18:49:22.313Z,57.40
2018-08-17T18:51:50.898Z,57.40
2018-08-17T18:54:20.494Z,58.90
2018-08-17T18:56:49.081Z,58.00
2018-08-17T18:59:17.876Z,58.30
2018-08-17T19:01:46.720Z,58.40
2018-08-17T19:04:15.318Z,61.00
2018-08-17T19:06:43.885Z,62.60
2018-08-17T19:09:12.573Z,63.40
2018-08-17T19:11:41.652Z,64.80
2018-08-17T19:14:10.287Z,67.30
2018-08-17T19:16:38.873Z,64.00
2018-08-17T19:19:07.761Z,68.30
2018-08-17T19:21:36.348Z,69.10
2018-08-17T19:24:09.796Z,69.20
2018-08-17T19:26:38.388Z,69.90
2018-08-17T19:29:07.007Z,70.00
2018-08-17T19:31:36.014Z,71.30
2018-08-17T19:34:04.662Z,70.70
2018-08-17T19:36:33.246Z,72.60
2018-08-17T19:39:01.859Z,74.80
2018-08-17T19:41:30.440Z,77.00
2018-08-17T19:44:00.237Z,75.50
2018-08-17T19:46:28.882Z,78.40
2018-08-17T19:48:57.451Z,78.30
2018-08-17T19:51:26.050Z,79.70
2018-08-17T19:53:54.617Z,80.50
2018-08-17T19:56:23.221Z,81.60
2018-08-17T19:58:51.821Z,76.40
2018-08-17T20:01:20.409Z,76.70
2018-08-17T20:03:49.006Z,82.00
2018-08-17T20:06:17.652Z,79.20
2018-08-17T20:08:46.259Z,77.20
2018-08-17T20:11:14.876Z,80.50
2018-08-17T20:13:43.450Z,80.10
2018-08-17T20:16:32.089Z,78.20
2018-08-17T20:19:01.507Z,82.50
2018-08-17T20:21:30.171Z,82.00
2018-08-17T20:23:58.944Z,78.80
2018-08-17T20:26:27.853Z,81.50
2018-08-17T20:28:56.264Z,81.60
2018-08-17T20:31:24.936Z,81.90
2018-08-17T20:33:53.505Z,83.40
2018-08-17T20:36:23.118Z,88.80
2018-08-17T20:38:51.705Z,87.90
2018-08-17T20:41:20.542Z,86.90
2018-08-17T20:43:49.212Z,85.70
2018-08-17T20:46:17.852Z,87.50
2018-08-17T20:48:47.935Z,90.40
2018-08-17T20:51:21.805Z,87.10
2018-08-17T20:53:55.662Z,84.50
2018-08-17T20:56:24.396Z,83.00
2018-08-17T20:58:52.980Z,79.70
2018-08-17T21:01:21.767Z,86.50
2018-08-17T21:03:50.425Z,79.20
2018-08-17T21:06:19.378Z,84.40
2018-08-17T21:08:48.181Z,85.40
2018-08-17T21:11:16.907Z,88.50
2018-08-17T21:13:45.649Z,88.70
2018-08-17T21:16:14.258Z,88.00
2018-08-17T21:18:42.859Z,90.20
2018-08-17T21:21:11.486Z,88.80
2018-08-17T21:23:40.097Z,88.30
2018-08-17T21:26:08.714Z,90.30
2018-08-17T21:28:37.288Z,90.40
2018-08-17T21:31:05.993Z,89.90
2018-08-17T21:33:34.666Z,91.60
2018-08-17T21:36:03.268Z,90.00
2018-08-17T21:38:31.833Z,90.60
2018-08-17T21:41:00.554Z,90.70
2018-08-17T21:43:29.203Z,89.30
2018-08-17T21:46:03.189Z,91.90
2018-08-17T21:48:32.041Z,92.10
2018-08-17T21:51:00.856Z,92.10
2018-08-17T21:53:29.707Z,89.70
2018-08-17T21:55:58.276Z,86.20
2018-08-17T21:58:26.883Z,85.30
2018-08-17T22:00:55.510Z,84.10
2018-08-17T22:03:30.042Z,89.60
2018-08-17T22:05:58.628Z,91.10
2018-08-17T22:08:27.217Z,90.60
2018-08-17T22:10:55.801Z,90.70
2018-08-17T22:13:31.595Z,91.70
2018-08-17T22:16:00.806Z,90.60
2018-08-17T22:18:29.943Z,90.80
2018-08-17T22:20:58.636Z,90.90
2018-08-17T22:23:30.706Z,90.00
2018-08-17T22:25:59.300Z,88.80
2018-08-17T22:28:27.924Z,92.00
2018-08-17T22:30:56.570Z,91.70
2018-08-17T22:33:25.170Z,92.40
2018-08-17T22:35:53.837Z,92.10
2018-08-17T22:38:22.469Z,93.30
2018-08-17T22:40:51.074Z,92.70
2018-08-17T22:43:20.126Z,91.90
2018-08-17T22:45:49.015Z,93.60
2018-08-17T22:48:17.697Z,93.50
2018-08-17T22:50:46.213Z,91.20
2018-08-17T22:53:14.812Z,88.70
2018-08-17T22:55:43.490Z,90.40
2018-08-17T22:58:12.102Z,91.20
2018-08-17T23:00:41.745Z,92.10
2018-08-17T23:03:10.406Z,92.00
2018-08-17T23:05:39.039Z,92.80
2018-08-17T23:08:07.658Z,93.30
2018-08-17T23:10:36.273Z,92.20
2018-08-17T23:13:05.492Z,92.00
2018-08-17T23:15:34.431Z,93.20
2018-08-17T23:18:03.093Z,92.10
2018-08-17T23:20:34.204Z,93.30
2018-08-17T23:23:03.647Z,92.50
2018-08-17T23:25:32.624Z,92.70
2018-08-17T23:28:01.254Z,92.50
2018-08-17T23:30:30.537Z,93.30
2018-08-17T23:32:59.143Z,94.00
2018-08-17T23:35:27.805Z,93.50
2018-08-17T23:37:56.405Z,92.20
2018-08-17T23:40:25.085Z,94.30
2018-08-17T23:42:53.684Z,92.20
2018-08-17T23:45:22.305Z,92.50
2018-08-17T23:47:50.877Z,92.50
2018-08-17T23:50:19.486Z,92.80
2018-08-17T23:52:48.070Z,93.00
2018-08-17T23:55:17.866Z,90.30
2018-08-17T23:57:46.471Z,92.00
